createdAt,value
2022-08-30T00:03:46.247Z,4.63
2022-08-30T00:07:48.049Z,5.15
2022-08-30T00:11:52.124Z,4.68
2022-08-30T00:15:53.949Z,7.18
2022-08-30T00:19:55.995Z,4.43
2022-08-30T00:23:57.495Z,3.97
2022-08-30T00:27:59.216Z,5.07
2022-08-30T00:32:02.408Z,3.58
2022-08-30T00:36:04.391Z,5.18
2022-08-30T00:40:09.675Z,9.57
2022-08-30T00:44:11.216Z,3.72
2022-08-30T00:48:12.777Z,4.22
2022-08-30T00:52:16.240Z,4.07
2022-08-30T00:56:18.823Z,4.32
2022-08-30T01:00:20.826Z,5.03
2022-08-30T01:04:25.838Z,5.18
2022-08-30T01:08:27.286Z,5.38
2022-08-30T01:12:30.028Z,5.53
2022-08-30T01:16:33.638Z,4.35
2022-08-30T01:20:45.893Z,8.32
2022-08-30T01:24:50.432Z,4.35
2022-08-30T01:28:55.238Z,5.78
2022-08-30T01:33:00.529Z,5.05
2022-08-30T01:37:02.207Z,7.07
2022-08-30T01:41:16.700Z,3.63
2022-08-30T01:45:18.223Z,5.68
2022-08-30T01:49:27.734Z,4.97
2022-08-30T01:53:29.554Z,4.90
2022-08-30T01:57:31.197Z,5.10
2022-08-30T02:01:36.887Z,5.38
2022-08-30T02:05:38.530Z,4.63
2022-08-30T02:09:40.181Z,4.60
2022-08-30T02:13:43.062Z,4.53
2022-08-30T02:17:45.883Z,4.07
2022-08-30T02:21:47.285Z,4.30
2022-08-30T02:25:48.757Z,5.63
2022-08-30T02:29:50.261Z,6.07
2022-08-30T02:33:53.141Z,4.80
2022-08-30T02:37:54.617Z,5.78
2022-08-30T02:41:56.952Z,7.00
2022-08-30T02:45:58.466Z,4.28
2022-08-30T02:50:00.107Z,9.35
2022-08-30T02:54:01.608Z,4.22
2022-08-30T02:58:03.351Z,5.20
2022-08-30T03:02:04.877Z,4.53
2022-08-30T03:06:06.755Z,4.78
2022-08-30T03:10:09.463Z,3.83
2022-08-30T03:14:10.999Z,5.50
2022-08-30T03:18:12.469Z,3.55
2022-08-30T03:22:13.910Z,5.70
2022-08-30T03:26:15.353Z,7.88
2022-08-30T03:30:18.438Z,5.50
2022-08-30T03:34:19.983Z,8.05
2022-08-30T03:38:21.484Z,7.82
2022-08-30T03:42:24.205Z,9.32
2022-08-30T03:46:26.965Z,7.85
2022-08-30T03:50:31.295Z,8.57
2022-08-30T03:54:32.815Z,10.27
2022-08-30T03:58:35.180Z,8.35
2022-08-30T04:02:36.739Z,7.45
2022-08-30T04:06:38.252Z,8.43
2022-08-30T04:10:39.692Z,6.90
2022-08-30T04:14:41.398Z,8.93
2022-08-30T04:18:43.258Z,11.25
2022-08-30T04:22:44.725Z,8.07
2022-08-30T04:26:46.291Z,8.13
2022-08-30T04:30:47.937Z,9.93
2022-08-30T04:34:49.560Z,12.90
2022-08-30T04:38:51.469Z,8.57
2022-08-30T04:42:54.473Z,6.85
2022-08-30T04:46:55.948Z,9.25
2022-08-30T04:50:57.402Z,6.65
2022-08-30T04:54:59.453Z,7.07
2022-08-30T04:59:01.533Z,12.63
2022-08-30T05:03:04.162Z,11.35
2022-08-30T05:07:05.591Z,10.02
2022-08-30T05:11:08.383Z,8.88
2022-08-30T05:15:11.174Z,10.68
2022-08-30T05:19:12.635Z,9.00
2022-08-30T05:23:14.110Z,13.10
2022-08-30T05:27:15.760Z,12.13
2022-08-30T05:31:21.248Z,10.98
2022-08-30T05:35:25.717Z,11.65
2022-08-30T05:39:27.374Z,11.75
2022-08-30T05:43:46.861Z,12.80
2022-08-30T05:47:48.436Z,12.05
2022-08-30T05:51:49.937Z,11.52
2022-08-30T05:55:51.578Z,9.52
2022-08-30T05:59:53.086Z,11.70
2022-08-30T06:03:59.311Z,10.50
2022-08-30T06:08:03.541Z,13.43
2022-08-30T06:12:05.220Z,9.93
2022-08-30T06:16:07.196Z,12.25
2022-08-30T06:20:09.291Z,9.77
2022-08-30T06:24:11.620Z,8.95
2022-08-30T06:28:13.313Z,10.57
2022-08-30T06:32:14.824Z,12.65
2022-08-30T06:36:22.020Z,10.68
2022-08-30T06:40:23.636Z,9.93
2022-08-30T06:44:25.175Z,9.23
2022-08-30T06:48:26.658Z,9.65
2022-08-30T06:52:28.147Z,12.55
2022-08-30T06:56:32.654Z,7.85
2022-08-30T07:00:34.179Z,6.93
2022-08-30T07:04:38.722Z,7.63
2022-08-30T07:08:41.406Z,6.38
2022-08-30T07:12:42.862Z,8.15
2022-08-30T07:16:45.409Z,7.00
2022-08-30T07:20:46.956Z,8.45
2022-08-30T07:24:48.483Z,4.78
2022-08-30T07:28:52.264Z,6.03
2022-08-30T07:32:57.975Z,5.22
2022-08-30T07:36:59.601Z,6.55
2022-08-30T07:41:01.322Z,6.95
2022-08-30T07:45:03.406Z,5.70
2022-08-30T07:49:11.160Z,7.80
2022-08-30T07:53:13.412Z,7.80
2022-08-30T07:57:15.972Z,7.25
2022-08-30T08:01:19.165Z,7.85
2022-08-30T08:05:24.620Z,8.02
2022-08-30T08:09:26.573Z,9.48
2022-08-30T08:13:28.549Z,7.20
2022-08-30T08:17:34.441Z,6.60
2022-08-30T08:21:37.071Z,6.22
2022-08-30T08:25:40.808Z,7.45
2022-08-30T08:29:42.320Z,6.03
2022-08-30T08:33:44.375Z,5.30
2022-08-30T08:37:45.885Z,6.20
2022-08-30T08:41:56.032Z,6.07
2022-08-30T08:46:12.446Z,6.22
2022-08-30T08:50:18.497Z,5.80
2022-08-30T08:54:27.543Z,7.63
2022-08-30T08:58:32.502Z,6.65
2022-08-30T09:02:55.807Z,5.32
2022-08-30T09:07:03.900Z,4.85
2022-08-30T09:11:11.146Z,5.53
2022-08-30T09:15:30.218Z,4.93
2022-08-30T09:19:45.267Z,10.63
2022-08-30T09:23:50.374Z,4.13
2022-08-30T09:27:54.061Z,7.50
2022-08-30T09:32:25.254Z,3.85
2022-08-30T09:36:25.527Z,4.22
2022-08-30T09:40:41.710Z,5.05
2022-08-30T09:44:43.183Z,4.18
2022-08-30T09:48:46.283Z,5.38
2022-08-30T09:53:23.448Z,4.75
2022-08-30T09:58:02.145Z,4.50
2022-08-30T10:02:23.640Z,9.95
2022-08-30T10:06:49.298Z,3.40
2022-08-30T10:11:05.775Z,3.45
2022-08-30T10:15:07.734Z,3.17
2022-08-30T10:19:35.649Z,10.05
2022-08-30T10:23:49.500Z,2.15
2022-08-30T10:28:27.704Z,5.43
2022-08-30T10:32:35.818Z,5.15
2022-08-30T10:36:46.793Z,4.47
2022-08-30T10:41:13.346Z,3.47
2022-08-30T10:45:17.431Z,2.25
2022-08-30T10:49:22.375Z,1.98
2022-08-30T10:53:46.981Z,2.05
2022-08-30T10:57:48.921Z,2.17
2022-08-30T11:02:28.202Z,2.03
2022-08-30T11:06:53.843Z,1.95
2022-08-30T11:11:14.436Z,1.77
2022-08-30T11:15:24.934Z,1.70
2022-08-30T11:19:32.185Z,2.53
2022-08-30T11:23:36.016Z,2.45
2022-08-30T11:27:51.335Z,3.03
2022-08-30T11:31:55.214Z,1.83
2022-08-30T11:35:56.843Z,3.88
2022-08-30T11:40:04.351Z,6.90
2022-08-30T11:44:26.096Z,3.50
2022-08-30T11:48:54.359Z,3.03
2022-08-30T11:53:20.037Z,2.58
2022-08-30T11:57:30.946Z,1.88
2022-08-30T12:01:50.603Z,1.85
2022-08-30T12:06:06.378Z,2.70
2022-08-30T12:10:23.429Z,4.32
2022-08-30T12:14:49.208Z,1.73
2022-08-30T12:19:00.163Z,2.42
2022-08-30T12:23:18.263Z,3.28
2022-08-30T12:27:25.358Z,2.03
2022-08-30T12:31:26.970Z,1.70
2022-08-30T12:35:28.833Z,2.40
2022-08-30T12:39:34.001Z,1.73
2022-08-30T12:43:47.200Z,3.35
2022-08-30T12:47:55.845Z,2.00
2022-08-30T12:52:28.720Z,5.70
2022-08-30T12:56:54.065Z,5.88
2022-08-30T13:01:26.601Z,2.20
2022-08-30T13:05:34.173Z,2.45
2022-08-30T13:09:35.567Z,3.58
2022-08-30T13:13:38.292Z,3.08
2022-08-30T13:17:40.107Z,2.25
2022-08-30T13:22:24.075Z,3.33
2022-08-30T13:26:31.147Z,4.20
2022-08-30T13:30:33.441Z,2.58
2022-08-30T13:34:36.225Z,6.10
2022-08-30T13:38:37.669Z,4.20
2022-08-30T13:42:41.961Z,2.17
2022-08-30T13:46:54.080Z,3.90
2022-08-30T13:50:57.023Z,3.17
2022-08-30T13:54:58.625Z,3.03
2022-08-30T13:59:02.793Z,1.98
2022-08-30T14:03:04.583Z,4.22
2022-08-30T14:07:16.803Z,2.70
2022-08-30T14:11:22.780Z,5.63
2022-08-30T14:15:24.605Z,1.70
2022-08-30T14:19:26.337Z,2.92
2022-08-30T14:23:28.482Z,1.73
2022-08-30T14:27:30.588Z,4.15
2022-08-30T14:31:33.484Z,3.67
2022-08-30T14:35:35.240Z,3.55
2022-08-30T14:39:36.855Z,3.35
2022-08-30T14:43:40.687Z,2.20
2022-08-30T14:47:42.269Z,3.38
2022-08-30T14:51:46.341Z,2.30
2022-08-30T14:55:47.790Z,3.53
2022-08-30T14:59:49.375Z,2.88
2022-08-30T15:03:51.111Z,3.45
2022-08-30T15:07:52.946Z,6.13
2022-08-30T15:11:58.727Z,3.60
2022-08-30T15:16:00.533Z,4.05
2022-08-30T15:20:02.209Z,5.78
2022-08-30T15:24:05.370Z,3.03
2022-08-30T15:28:07.797Z,2.42
2022-08-30T15:32:09.331Z,7.07
2022-08-30T15:36:11.759Z,4.65
2022-08-30T15:40:13.656Z,3.95
2022-08-30T15:44:15.906Z,4.18
2022-08-30T15:48:17.493Z,5.90
2022-08-30T15:52:19.366Z,6.03
2022-08-30T15:56:21.195Z,3.88
2022-08-30T16:00:22.624Z,2.60
2022-08-30T16:04:24.718Z,4.88
2022-08-30T16:08:27.676Z,2.83
2022-08-30T16:12:29.118Z,3.55
2022-08-30T16:16:31.113Z,2.95
2022-08-30T16:20:32.719Z,5.45
2022-08-30T16:24:34.484Z,11.90
2022-08-30T16:28:36.842Z,3.97
2022-08-30T16:32:39.787Z,6.00
2022-08-30T16:36:42.545Z,2.40
2022-08-30T16:40:44.275Z,2.83
2022-08-30T16:44:45.779Z,5.38
2022-08-30T16:48:47.458Z,3.80
2022-08-30T16:52:49.874Z,3.17
2022-08-30T16:56:51.683Z,3.90
2022-08-30T17:00:53.160Z,3.63
2022-08-30T17:04:54.705Z,7.65
2022-08-30T17:08:56.727Z,7.70
2022-08-30T17:12:58.574Z,3.30
2022-08-30T17:17:00.792Z,3.22
2022-08-30T17:21:02.491Z,2.20
2022-08-30T17:25:04.788Z,5.22
2022-08-30T17:29:07.804Z,4.35
2022-08-30T17:33:11.055Z,11.30
2022-08-30T17:37:12.687Z,3.50
2022-08-30T17:41:14.448Z,2.92
2022-08-30T17:45:17.174Z,5.03
2022-08-30T17:49:18.707Z,3.15
2022-08-30T17:53:20.857Z,6.10
2022-08-30T17:57:22.334Z,2.70
2022-08-30T18:01:24.164Z,2.97
2022-08-30T18:05:25.762Z,3.10
2022-08-30T18:09:31.803Z,5.57
2022-08-30T18:13:35.475Z,8.52
2022-08-30T18:17:36.934Z,6.88
2022-08-30T18:21:38.830Z,7.50
2022-08-30T18:25:40.544Z,4.35
2022-08-30T18:29:42.980Z,3.15
2022-08-30T18:33:44.676Z,3.72
2022-08-30T18:37:46.218Z,4.15
2022-08-30T18:41:48.377Z,2.83
2022-08-30T18:45:50.298Z,3.17
2022-08-30T18:49:54.731Z,4.20
2022-08-30T18:53:56.269Z,3.40
2022-08-30T18:57:57.725Z,5.65
2022-08-30T19:01:59.278Z,4.20
2022-08-30T19:06:09.106Z,6.22
2022-08-30T19:10:13.204Z,4.78
2022-08-30T19:14:14.733Z,4.63
2022-08-30T19:18:17.091Z,6.07
2022-08-30T19:22:21.353Z,6.45
2022-08-30T19:26:23.363Z,4.43
2022-08-30T19:30:30.241Z,4.15
2022-08-30T19:34:31.888Z,3.15
2022-08-30T19:38:35.654Z,3.90
2022-08-30T19:42:43.330Z,3.92
2022-08-30T19:46:47.657Z,3.97
2022-08-30T19:50:49.448Z,3.38
2022-08-30T19:54:50.996Z,3.15
2022-08-30T19:58:52.690Z,3.22
2022-08-30T20:02:54.150Z,4.22
2022-08-30T20:06:56.720Z,5.82
2022-08-30T20:10:58.427Z,4.38
2022-08-30T20:15:01.349Z,3.15
2022-08-30T20:19:04.114Z,2.92
2022-08-30T20:23:05.776Z,8.02
2022-08-30T20:27:07.355Z,5.50
2022-08-30T20:31:10.831Z,5.55
2022-08-30T20:35:15.209Z,6.93
2022-08-30T20:39:17.632Z,3.88
2022-08-30T20:43:21.814Z,6.20
2022-08-30T20:47:23.592Z,8.40
2022-08-30T20:51:27.434Z,3.40
2022-08-30T20:55:29.155Z,4.05
2022-08-30T20:59:31.399Z,5.75
2022-08-30T21:03:32.931Z,5.30
2022-08-30T21:07:34.682Z,5.07
2022-08-30T21:11:37.223Z,4.82
2022-08-30T21:15:38.872Z,3.35
2022-08-30T21:19:43.858Z,9.10
2022-08-30T21:23:45.570Z,5.28
2022-08-30T21:27:47.140Z,4.18
2022-08-30T21:31:48.585Z,3.80
2022-08-30T21:36:08.596Z,4.60
2022-08-30T21:44:19.909Z,4.05
2022-08-30T21:48:21.345Z,2.55
2022-08-30T21:52:23.013Z,2.55
2022-08-30T21:56:24.690Z,1.80
2022-08-30T22:00:26.510Z,2.10
2022-08-30T22:04:28.697Z,2.55
2022-08-30T22:08:30.152Z,4.82
2022-08-30T22:12:31.800Z,6.68
2022-08-30T22:16:33.752Z,2.15
2022-08-30T22:20:35.257Z,1.95
2022-08-30T22:24:36.975Z,2.63
2022-08-30T22:28:38.511Z,1.67
2022-08-30T22:32:40.070Z,3.58
2022-08-30T22:36:41.698Z,2.53
2022-08-30T22:40:48.524Z,2.22
2022-08-30T22:44:51.699Z,2.45
2022-08-30T22:48:53.107Z,3.63
2022-08-30T22:52:54.557Z,3.03
2022-08-30T22:56:56.046Z,3.92
2022-08-30T23:00:57.585Z,3.15
2022-08-30T23:05:03.427Z,1.98
2022-08-30T23:09:06.702Z,2.92
2022-08-30T23:13:08.184Z,1.65
2022-08-30T23:17:09.897Z,3.88
2022-08-30T23:21:13.305Z,2.13
2022-08-30T23:25:41.236Z,6.68
2022-08-30T23:30:02.182Z,1.73
2022-08-30T23:34:21.915Z,2.58
2022-08-30T23:38:42.167Z,3.47
2022-08-30T23:43:02.611Z,7.80
2022-08-30T23:47:22.894Z,3.75
2022-08-30T23:51:43.281Z,4.60
2022-08-30T23:56:03.101Z,2.63
